createdAt,value
2018-11-25T00:00:19.433Z,93.60
2018-11-25T00:02:47.835Z,93.70
2018-11-25T00:05:16.211Z,93.70
2018-11-25T00:07:44.613Z,93.80
2018-11-25T00:10:13.156Z,94.10
2018-11-25T00:12:41.487Z,93.80
2018-11-25T00:15:10.075Z,94.00
2018-11-25T00:17:38.434Z,94.10
2018-11-25T00:20:12.142Z,94.20
2018-11-25T00:22:40.792Z,94.40
2018-11-25T00:25:13.207Z,94.50
2018-11-25T00:27:41.550Z,94.60
2018-11-25T00:30:13.213Z,94.60
2018-11-25T00:32:41.649Z,94.60
2018-11-25T00:35:11.495Z,94.60
2018-11-25T00:37:43.371Z,94.60
2018-11-25T00:40:13.663Z,94.50
2018-11-25T00:42:42.418Z,94.40
2018-11-25T00:45:15.246Z,94.40
2018-11-25T00:47:43.597Z,94.30
2018-11-25T00:50:13.033Z,94.30
2018-11-25T00:52:41.687Z,94.40
2018-11-25T00:55:11.294Z,94.30
2018-11-25T00:57:39.742Z,94.10
2018-11-25T01:00:17.047Z,94.30
2018-11-25T01:02:45.980Z,94.10
2018-11-25T01:05:14.337Z,94.40
2018-11-25T01:07:42.627Z,94.10
2018-11-25T01:10:16.140Z,94.10
2018-11-25T01:12:45.121Z,93.90
2018-11-25T01:15:17.573Z,93.90
2018-11-25T01:17:46.123Z,93.90
2018-11-25T01:20:18.817Z,93.80
2018-11-25T01:22:47.219Z,93.60
2018-11-25T01:25:15.628Z,93.70
2018-11-25T01:27:43.955Z,93.70
2018-11-25T01:30:13.451Z,93.80
2018-11-25T01:32:41.848Z,93.90
2018-11-25T01:35:11.023Z,93.90
2018-11-25T01:37:39.469Z,93.90
2018-11-25T01:40:13.283Z,94.00
2018-11-25T01:42:41.635Z,94.10
2018-11-25T01:45:15.156Z,94.10
2018-11-25T01:47:43.513Z,94.20
2018-11-25T01:50:15.693Z,94.20
2018-11-25T01:52:44.053Z,94.20
2018-11-25T01:55:16.635Z,94.20
2018-11-25T01:57:45.008Z,94.20
2018-11-25T02:00:21.154Z,94.20
2018-11-25T02:02:49.929Z,94.30
2018-11-25T02:05:18.330Z,94.30
2018-11-25T02:07:46.707Z,94.30
2018-11-25T02:10:17.231Z,94.30
2018-11-25T02:12:45.588Z,94.30
2018-11-25T02:15:15.117Z,94.20
2018-11-25T02:17:43.501Z,94.20
2018-11-25T02:20:20.821Z,94.10
2018-11-25T02:22:49.752Z,94.00
2018-11-25T02:25:18.120Z,94.00
2018-11-25T02:27:51.754Z,93.90
2018-11-25T02:30:20.104Z,93.90
2018-11-25T02:32:48.497Z,93.80
2018-11-25T02:35:17.494Z,93.80
2018-11-25T02:37:45.857Z,93.70
2018-11-25T02:40:15.270Z,93.60
2018-11-25T02:42:43.609Z,93.60
2018-11-25T02:45:16.994Z,93.60
2018-11-25T02:47:45.411Z,93.60
2018-11-25T02:50:22.718Z,93.60
2018-11-25T02:52:51.177Z,93.50
2018-11-25T02:55:20.882Z,93.40
2018-11-25T02:57:49.241Z,93.50
2018-11-25T03:00:17.655Z,93.50
2018-11-25T03:02:45.998Z,93.50
2018-11-25T03:05:14.345Z,93.50
2018-11-25T03:07:42.763Z,93.50
2018-11-25T03:10:11.101Z,93.60
2018-11-25T03:12:39.512Z,93.60
2018-11-25T03:15:09.765Z,93.60
2018-11-25T03:17:38.199Z,93.60
2018-11-25T03:20:11.047Z,93.50
2018-11-25T03:22:39.472Z,93.50
2018-11-25T03:25:12.298Z,93.40
2018-11-25T03:27:40.651Z,93.40
2018-11-25T03:30:11.076Z,93.30
2018-11-25T03:32:39.560Z,93.40
2018-11-25T03:35:09.376Z,93.30
2018-11-25T03:37:38.573Z,93.30
2018-11-25T03:40:09.680Z,93.20
2018-11-25T03:42:38.160Z,93.20
2018-11-25T03:45:09.918Z,93.20
2018-11-25T03:47:38.291Z,93.10
2018-11-25T03:50:07.550Z,93.10
2018-11-25T03:52:35.910Z,93.10
2018-11-25T03:55:05.480Z,93.10
2018-11-25T03:57:33.821Z,93.00
2018-11-25T04:00:02.201Z,93.00
2018-11-25T04:02:30.597Z,92.90
2018-11-25T04:04:58.966Z,92.90
2018-11-25T04:07:27.357Z,93.00
2018-11-25T04:09:55.745Z,93.00
2018-11-25T04:12:24.920Z,92.90
2018-11-25T04:14:53.300Z,93.00
2018-11-25T04:17:21.630Z,93.00
2018-11-25T04:19:49.947Z,93.20
2018-11-25T04:22:18.404Z,93.30
2018-11-25T04:24:46.748Z,93.40
2018-11-25T04:27:15.132Z,93.50
2018-11-25T04:29:43.566Z,93.50
2018-11-25T04:32:11.894Z,93.50
2018-11-25T04:34:40.244Z,93.40
2018-11-25T04:37:08.614Z,93.40
2018-11-25T04:39:37.001Z,93.30
2018-11-25T04:42:05.890Z,93.50
2018-11-25T04:44:34.224Z,93.80
2018-11-25T04:47:02.546Z,93.90
2018-11-25T04:49:30.879Z,94.10
2018-11-25T04:51:59.246Z,94.10
2018-11-25T04:54:27.640Z,94.10
2018-11-25T04:56:56.000Z,94.20
2018-11-25T04:59:24.383Z,94.20
2018-11-25T05:01:52.755Z,94.30
2018-11-25T05:04:21.235Z,94.40
2018-11-25T05:06:49.581Z,94.40
2018-11-25T05:09:17.927Z,94.50
2018-11-25T05:11:47.586Z,94.30
2018-11-25T05:14:15.945Z,94.30
2018-11-25T05:16:44.298Z,94.20
2018-11-25T05:19:12.645Z,94.30
2018-11-25T05:21:41.068Z,94.40
2018-11-25T05:24:09.438Z,94.80
2018-11-25T05:26:37.823Z,94.30
2018-11-25T05:29:06.475Z,94.30
2018-11-25T05:31:34.844Z,94.30
2018-11-25T05:34:03.205Z,94.30
2018-11-25T05:36:31.581Z,94.20
2018-11-25T05:38:59.935Z,94.20
2018-11-25T05:41:28.279Z,94.10
2018-11-25T05:43:56.874Z,94.00
2018-11-25T05:46:25.289Z,94.10
2018-11-25T05:48:53.658Z,94.20
2018-11-25T05:51:22.015Z,94.30
2018-11-25T05:53:50.406Z,94.30
2018-11-25T05:56:18.890Z,94.40
2018-11-25T05:58:47.250Z,94.40
2018-11-25T06:01:15.661Z,94.50
2018-11-25T06:03:44.038Z,94.50
2018-11-25T06:06:12.463Z,94.60
2018-11-25T06:08:40.841Z,94.50
2018-11-25T06:11:09.238Z,94.50
2018-11-25T06:13:37.700Z,94.40
2018-11-25T06:16:06.424Z,94.50
2018-11-25T06:18:35.841Z,94.30
2018-11-25T06:21:04.185Z,94.20
2018-11-25T06:23:32.694Z,93.90
2018-11-25T06:26:01.166Z,94.00
2018-11-25T06:28:29.572Z,93.90
2018-11-25T06:30:58.018Z,93.90
2018-11-25T06:33:26.410Z,93.90
2018-11-25T06:35:54.838Z,93.80
2018-11-25T06:38:24.390Z,93.90
2018-11-25T06:40:51.723Z,93.70
2018-11-25T06:43:20.161Z,93.60
2018-11-25T06:45:48.496Z,93.60
2018-11-25T06:48:16.916Z,93.40
2018-11-25T06:50:45.350Z,93.50
2018-11-25T06:53:13.749Z,93.40
2018-11-25T06:55:42.173Z,93.40
2018-11-25T06:58:10.546Z,93.30
2018-11-25T07:00:38.988Z,93.20
2018-11-25T07:03:07.385Z,93.40
2018-11-25T07:05:35.758Z,93.40
2018-11-25T07:08:04.558Z,93.50
2018-11-25T07:10:32.916Z,93.50
2018-11-25T07:13:01.337Z,93.40
2018-11-25T07:15:29.749Z,93.50
2018-11-25T07:17:58.109Z,93.40
2018-11-25T07:20:26.458Z,93.40
2018-11-25T07:22:54.966Z,93.40
2018-11-25T07:25:24.070Z,93.40
2018-11-25T07:27:52.663Z,93.30
2018-11-25T07:30:22.160Z,93.20
2018-11-25T07:32:50.692Z,93.20
2018-11-25T07:35:19.110Z,93.20
2018-11-25T07:37:47.550Z,93.10
2018-11-25T07:40:20.091Z,93.00
2018-11-25T07:42:48.891Z,93.00
2018-11-25T07:45:18.359Z,93.00
2018-11-25T07:47:46.777Z,93.00
2018-11-25T07:50:15.199Z,93.00
2018-11-25T07:52:44.559Z,92.90
2018-11-25T07:55:17.210Z,92.90
2018-11-25T07:57:46.161Z,92.90
2018-11-25T08:00:16.639Z,92.90
2018-11-25T08:02:45.160Z,92.60
2018-11-25T08:05:17.738Z,92.90
2018-11-25T08:07:46.255Z,92.80
2018-11-25T08:10:15.495Z,92.80
2018-11-25T08:12:44.390Z,92.70
2018-11-25T08:15:14.858Z,92.70
2018-11-25T08:17:43.236Z,92.80
2018-11-25T08:20:19.494Z,92.70
2018-11-25T08:22:48.118Z,92.60
2018-11-25T08:25:17.559Z,92.50
2018-11-25T08:27:46.006Z,92.50
2018-11-25T08:30:15.335Z,92.50
2018-11-25T08:32:43.885Z,92.50
2018-11-25T08:35:13.281Z,92.50
2018-11-25T08:37:41.639Z,92.50
2018-11-25T08:40:13.233Z,92.60
2018-11-25T08:42:43.244Z,92.60
2018-11-25T08:45:12.571Z,92.40
2018-11-25T08:47:40.956Z,92.40
2018-11-25T08:50:13.401Z,92.40
2018-11-25T08:52:42.461Z,92.40
2018-11-25T08:55:15.180Z,92.40
2018-11-25T08:57:43.691Z,92.30
2018-11-25T09:00:13.532Z,92.20
2018-11-25T09:02:41.945Z,92.10
2018-11-25T09:05:11.586Z,92.20
2018-11-25T09:07:39.952Z,92.20
2018-11-25T09:10:16.515Z,92.20
2018-11-25T09:12:45.804Z,92.10
2018-11-25T09:15:15.453Z,92.10
2018-11-25T09:17:43.997Z,92.20
2018-11-25T09:20:13.721Z,92.10
2018-11-25T09:22:42.201Z,92.20
2018-11-25T09:25:14.942Z,92.30
2018-11-25T09:27:43.456Z,92.30
2018-11-25T09:30:20.057Z,92.30
2018-11-25T09:32:48.646Z,92.30
2018-11-25T09:35:17.525Z,92.30
2018-11-25T09:37:46.596Z,92.30
2018-11-25T09:40:16.316Z,92.40
2018-11-25T09:42:44.743Z,92.40
2018-11-25T09:45:17.289Z,92.40
2018-11-25T09:47:47.118Z,92.40
2018-11-25T09:50:19.648Z,92.40
2018-11-25T09:52:48.082Z,92.30
2018-11-25T09:55:21.596Z,92.30
2018-11-25T09:57:52.318Z,92.20
2018-11-25T10:00:24.992Z,92.20
2018-11-25T10:02:53.522Z,92.10
2018-11-25T10:05:21.948Z,92.10
2018-11-25T10:07:50.393Z,92.10
2018-11-25T10:10:20.886Z,92.10
2018-11-25T10:12:49.385Z,92.10
2018-11-25T10:15:19.110Z,92.10
2018-11-25T10:17:47.506Z,92.00
2018-11-25T10:20:20.151Z,92.00
2018-11-25T10:22:48.524Z,92.00
2018-11-25T10:25:17.402Z,91.90
2018-11-25T10:27:45.863Z,91.90
2018-11-25T10:30:19.294Z,91.90
2018-11-25T10:32:48.832Z,92.00
2018-11-25T10:35:17.272Z,92.00
2018-11-25T10:37:45.743Z,92.00
2018-11-25T10:40:15.319Z,92.40
2018-11-25T10:42:43.731Z,92.00
2018-11-25T10:45:14.374Z,92.00
2018-11-25T10:47:42.840Z,91.90
2018-11-25T10:50:16.471Z,91.90
2018-11-25T10:52:44.928Z,92.00
2018-11-25T10:55:14.423Z,92.00
2018-11-25T10:57:43.808Z,92.10
2018-11-25T11:00:25.502Z,92.00
2018-11-25T11:02:58.079Z,92.00
2018-11-25T11:05:30.772Z,91.80
2018-11-25T11:07:59.237Z,91.70
2018-11-25T11:10:27.710Z,91.80
2018-11-25T11:12:56.360Z,91.80
2018-11-25T11:15:24.778Z,91.80
2018-11-25T11:17:53.199Z,91.80
2018-11-25T11:20:21.628Z,91.90
2018-11-25T11:22:50.064Z,92.00
2018-11-25T11:25:18.520Z,92.00
2018-11-25T11:27:46.891Z,91.80
2018-11-25T11:30:15.362Z,91.80
2018-11-25T11:32:45.261Z,91.70
2018-11-25T11:35:13.891Z,91.60
2018-11-25T11:37:42.286Z,91.60
2018-11-25T11:40:11.932Z,91.70
2018-11-25T11:42:40.504Z,91.70
2018-11-25T11:45:13.880Z,91.80
2018-11-25T11:47:43.187Z,91.80
2018-11-25T11:50:13.023Z,91.80
2018-11-25T11:52:41.592Z,91.60
2018-11-25T11:55:12.728Z,91.60
2018-11-25T11:57:42.359Z,91.70
2018-11-25T12:00:15.416Z,91.90
2018-11-25T12:02:44.013Z,92.10
2018-11-25T12:05:12.552Z,91.80
2018-11-25T12:07:40.991Z,91.80
2018-11-25T12:10:11.211Z,91.90
2018-11-25T12:12:39.695Z,92.00
2018-11-25T12:15:13.471Z,92.00
2018-11-25T12:17:41.962Z,92.00
2018-11-25T12:20:10.994Z,92.10
2018-11-25T12:22:39.643Z,92.10
2018-11-25T12:25:11.340Z,92.10
2018-11-25T12:27:39.832Z,92.10
2018-11-25T12:30:12.441Z,92.10
2018-11-25T12:32:41.439Z,92.00
2018-11-25T12:35:11.072Z,92.00
2018-11-25T12:37:39.525Z,92.00
2018-11-25T12:40:10.850Z,92.00
2018-11-25T12:42:39.670Z,91.90
2018-11-25T12:45:10.104Z,91.90
2018-11-25T12:47:38.565Z,91.70
2018-11-25T12:50:09.042Z,91.80
2018-11-25T12:52:37.593Z,91.80
2018-11-25T12:55:11.143Z,91.70
2018-11-25T12:57:39.581Z,91.70
2018-11-25T13:00:16.963Z,91.70
2018-11-25T13:02:45.394Z,91.70
2018-11-25T13:05:13.880Z,91.80
2018-11-25T13:07:42.383Z,91.90
2018-11-25T13:10:10.884Z,91.90
2018-11-25T13:12:39.434Z,91.90
2018-11-25T13:15:09.286Z,91.90
2018-11-25T13:17:37.673Z,91.90
2018-11-25T13:20:09.253Z,91.90
2018-11-25T13:22:38.443Z,91.90
2018-11-25T13:25:08.423Z,92.20
2018-11-25T13:27:37.054Z,91.90
2018-11-25T13:30:13.085Z,92.00
2018-11-25T13:32:41.453Z,92.00
2018-11-25T13:35:10.474Z,92.00
2018-11-25T13:37:39.165Z,92.00
2018-11-25T13:40:11.955Z,92.10
2018-11-25T13:42:40.613Z,92.10
2018-11-25T13:45:09.260Z,92.10
2018-11-25T13:47:37.665Z,92.20
2018-11-25T13:50:07.575Z,92.20
2018-11-25T13:52:36.052Z,92.30
2018-11-25T13:55:05.815Z,92.20
2018-11-25T13:57:34.469Z,92.20
2018-11-25T14:00:02.964Z,92.20
2018-11-25T14:02:31.386Z,92.30
2018-11-25T14:04:59.886Z,92.30
2018-11-25T14:07:28.366Z,92.20
2018-11-25T14:09:56.979Z,92.20
2018-11-25T14:12:25.363Z,92.30
2018-11-25T14:14:53.816Z,92.60
2018-11-25T14:17:22.554Z,92.30
2018-11-25T14:19:51.002Z,92.30
2018-11-25T14:22:19.555Z,92.30
2018-11-25T14:24:47.914Z,92.30
2018-11-25T14:27:16.333Z,92.30
2018-11-25T14:29:44.752Z,92.30
2018-11-25T14:32:13.255Z,92.20
2018-11-25T14:34:41.674Z,92.20
2018-11-25T14:37:10.054Z,92.30
2018-11-25T14:39:38.786Z,92.30
2018-11-25T14:42:07.190Z,92.40
2018-11-25T14:44:35.650Z,92.40
2018-11-25T14:47:05.807Z,92.40
2018-11-25T14:49:34.240Z,92.40
2018-11-25T14:52:02.649Z,92.40
2018-11-25T14:54:31.093Z,92.40
2018-11-25T14:56:59.473Z,92.50
2018-11-25T14:59:27.960Z,92.50
2018-11-25T15:01:57.272Z,92.50
2018-11-25T15:04:25.647Z,92.60
2018-11-25T15:06:54.073Z,92.60
2018-11-25T15:09:22.448Z,92.60
2018-11-25T15:11:50.862Z,92.60
2018-11-25T15:14:19.271Z,92.60
2018-11-25T15:16:47.713Z,92.60
2018-11-25T15:19:16.191Z,92.60
2018-11-25T15:21:44.607Z,92.60
2018-11-25T15:24:13.024Z,92.70
2018-11-25T15:26:41.395Z,92.60
2018-11-25T15:29:09.820Z,92.60
2018-11-25T15:31:38.378Z,92.60
2018-11-25T15:34:06.795Z,92.70
2018-11-25T15:36:37.372Z,92.70
2018-11-25T15:39:10.080Z,92.70
2018-11-25T15:41:39.065Z,92.70
2018-11-25T15:44:08.196Z,92.60
2018-11-25T15:46:38.571Z,92.70
2018-11-25T15:49:07.838Z,92.70
2018-11-25T15:51:36.870Z,92.80
2018-11-25T15:54:06.105Z,92.80
2018-11-25T15:56:35.263Z,92.80
2018-11-25T15:59:04.350Z,92.80
2018-11-25T16:01:33.367Z,92.80
2018-11-25T16:04:02.442Z,92.90
2018-11-25T16:06:33.801Z,92.90
2018-11-25T16:09:02.849Z,92.80
2018-11-25T16:11:31.945Z,92.80
2018-11-25T16:14:01.033Z,92.80
2018-11-25T16:16:30.074Z,92.80
2018-11-25T16:18:59.129Z,92.90
2018-11-25T16:21:28.207Z,93.10
2018-11-25T16:23:57.244Z,92.90
2018-11-25T16:26:32.086Z,92.90
2018-11-25T16:29:07.015Z,93.10
2018-11-25T16:31:36.178Z,92.90
2018-11-25T16:34:05.476Z,92.90
2018-11-25T16:36:34.487Z,92.80
2018-11-25T16:39:03.583Z,92.80
2018-11-25T16:41:32.692Z,92.80
2018-11-25T16:44:01.745Z,92.80
2018-11-25T16:46:31.526Z,92.80
2018-11-25T16:49:00.687Z,92.80
2018-11-25T16:51:29.840Z,92.90
2018-11-25T16:53:58.944Z,92.90
2018-11-25T16:56:28.056Z,92.90
2018-11-25T16:58:58.556Z,92.80
2018-11-25T17:01:36.500Z,92.90
2018-11-25T17:04:09.389Z,93.00
2018-11-25T17:06:46.846Z,93.00
2018-11-25T17:09:16.266Z,93.00
2018-11-25T17:11:49.853Z,93.00
2018-11-25T17:14:21.365Z,93.40
2018-11-25T17:16:50.429Z,93.00
2018-11-25T17:19:19.964Z,93.00
2018-11-25T17:21:52.743Z,93.00
2018-11-25T17:24:26.914Z,93.00
2018-11-25T17:30:47.482Z,93.00
2018-11-25T17:33:16.649Z,93.00
2018-11-25T17:35:46.641Z,93.00
2018-11-25T17:38:25.015Z,93.00
2018-11-25T17:40:55.134Z,93.00
2018-11-25T17:43:44.288Z,93.00
2018-11-25T17:46:15.712Z,93.00
2018-11-25T17:48:49.835Z,92.90
2018-11-25T17:51:19.195Z,93.00
2018-11-25T17:53:51.677Z,93.00
2018-11-25T17:59:28.556Z,93.00
2018-11-25T18:01:57.626Z,92.90
2018-11-25T18:04:26.655Z,92.90
2018-11-25T18:06:55.814Z,92.80
2018-11-25T18:09:24.882Z,92.80
2018-11-25T18:11:54.037Z,92.80
2018-11-25T18:14:23.035Z,92.90
2018-11-25T18:16:53.308Z,92.90
2018-11-25T18:19:23.699Z,92.90
2018-11-25T18:21:59.439Z,92.80
2018-11-25T18:24:28.541Z,92.70
2018-11-25T18:29:58.074Z,92.90
2018-11-25T18:32:27.160Z,92.80
2018-11-25T18:34:56.372Z,92.90
2018-11-25T18:37:25.351Z,93.00
2018-11-25T18:39:54.457Z,93.00
2018-11-25T18:42:24.890Z,93.20
2018-11-25T18:45:31.713Z,93.30
2018-11-25T18:48:00.964Z,93.10
2018-11-25T18:50:29.987Z,93.10
2018-11-25T18:52:59.106Z,93.20
2018-11-25T18:55:27.213Z,93.20
2018-11-25T18:57:57.561Z,93.20
2018-11-25T19:00:36.243Z,93.60
2018-11-25T19:03:05.577Z,93.30
2018-11-25T19:05:34.995Z,93.30
2018-11-25T19:08:05.145Z,93.30
2018-11-25T19:10:34.803Z,93.20
2018-11-25T19:13:03.366Z,93.20
2018-11-25T19:15:32.527Z,93.20
2018-11-25T19:18:01.637Z,93.20
2018-11-25T19:20:30.857Z,93.30
2018-11-25T19:23:00.331Z,93.30
2018-11-25T19:25:51.782Z,93.30
2018-11-25T19:28:24.071Z,93.20
2018-11-25T19:31:00.473Z,93.20
2018-11-25T19:33:30.277Z,93.20
2018-11-25T19:35:59.262Z,93.20
2018-11-25T19:38:28.873Z,93.20
2018-11-25T19:40:57.947Z,93.00
2018-11-25T19:43:26.966Z,93.00
2018-11-25T19:45:56.130Z,92.80
2018-11-25T19:48:25.287Z,92.90
2018-11-25T19:50:54.378Z,93.20
2018-11-25T19:53:24.312Z,93.00
2018-11-25T19:55:53.510Z,93.00
2018-11-25T19:58:22.607Z,93.00
2018-11-25T20:01:39.756Z,93.00
2018-11-25T20:04:08.856Z,93.00
2018-11-25T20:06:43.468Z,93.10
2018-11-25T20:09:39.379Z,93.10
2018-11-25T20:15:31.340Z,93.00
2018-11-25T20:18:03.678Z,93.00
2018-11-25T20:20:37.264Z,92.90
2018-11-25T20:23:08.741Z,92.70
2018-11-25T20:25:39.138Z,92.60
2018-11-25T20:28:28.165Z,93.00
2018-11-25T20:30:57.534Z,92.90
2018-11-25T20:33:31.569Z,93.00
2018-11-25T20:36:04.218Z,93.20
2018-11-25T20:38:39.289Z,93.10
2018-11-25T20:41:11.506Z,93.20
2018-11-25T20:43:40.550Z,93.10
2018-11-25T20:46:15.582Z,93.10
2018-11-25T20:48:48.718Z,93.20
2018-11-25T20:51:18.229Z,93.30
2018-11-25T20:53:51.953Z,93.40
2018-11-25T20:56:20.990Z,93.20
2018-11-25T20:58:50.047Z,93.30
2018-11-25T21:01:19.236Z,93.30
2018-11-25T21:04:06.734Z,93.40
2018-11-25T21:06:36.558Z,93.40
2018-11-25T21:09:32.786Z,93.40
2018-11-25T21:12:03.047Z,93.40
2018-11-25T21:14:35.843Z,93.30
2018-11-25T21:17:05.067Z,93.30
2018-11-25T21:22:52.386Z,93.60
2018-11-25T21:25:22.546Z,93.20
2018-11-25T21:27:51.580Z,93.30
2018-11-25T21:30:25.659Z,93.40
2018-11-25T21:32:58.462Z,93.40
2018-11-25T21:35:27.461Z,93.40
2018-11-25T21:37:57.980Z,93.40
2018-11-25T21:40:34.128Z,93.10
2018-11-25T21:43:05.843Z,93.30
2018-11-25T21:45:34.901Z,93.20
2018-11-25T21:48:03.946Z,93.20
2018-11-25T21:50:33.050Z,93.00
2018-11-25T21:53:02.109Z,93.00
2018-11-25T21:55:31.193Z,92.90
2018-11-25T21:58:00.226Z,92.80
2018-11-25T22:00:29.467Z,92.90
2018-11-25T22:02:58.559Z,93.00
2018-11-25T22:05:27.697Z,92.80
2018-11-25T22:07:56.757Z,92.80
2018-11-25T22:10:25.892Z,92.70
2018-11-25T22:12:55.058Z,92.50
2018-11-25T22:15:24.082Z,92.50
2018-11-25T22:17:53.208Z,92.70
2018-11-25T22:20:25.196Z,92.70
2018-11-25T22:22:54.302Z,92.80
2018-11-25T22:25:23.292Z,92.80
2018-11-25T22:27:52.377Z,92.80
2018-11-25T22:30:23.016Z,92.80
2018-11-25T22:32:52.151Z,92.60
2018-11-25T22:35:22.323Z,92.60
2018-11-25T22:37:51.380Z,92.50
2018-11-25T22:40:20.646Z,92.60
2018-11-25T22:42:50.433Z,92.70
2018-11-25T22:45:21.835Z,92.60
2018-11-25T22:47:50.948Z,92.40
2018-11-25T22:50:21.231Z,92.50
2018-11-25T22:52:50.513Z,92.50
2018-11-25T22:55:21.739Z,92.40
2018-11-25T22:57:50.768Z,92.40
2018-11-25T23:00:25.328Z,92.50
2018-11-25T23:02:55.405Z,92.60
2018-11-25T23:05:33.371Z,92.60
2018-11-25T23:08:02.762Z,92.60
2018-11-25T23:10:31.797Z,92.60
2018-11-25T23:13:00.845Z,92.60
2018-11-25T23:15:30.069Z,92.60
2018-11-25T23:17:59.050Z,92.50
2018-11-25T23:20:28.069Z,92.40
2018-11-25T23:22:57.138Z,92.20
2018-11-25T23:25:26.143Z,92.10
2018-11-25T23:27:55.287Z,92.20
2018-11-25T23:30:24.334Z,92.30
2018-11-25T23:32:53.300Z,92.30
2018-11-25T23:35:24.115Z,92.30
2018-11-25T23:37:53.153Z,92.40
2018-11-25T23:40:22.169Z,92.40
2018-11-25T23:42:51.312Z,92.20
2018-11-25T23:45:20.440Z,92.30
2018-11-25T23:47:49.458Z,92.10
2018-11-25T23:50:18.531Z,92.20
2018-11-25T23:52:48.518Z,92.20
2018-11-25T23:55:17.544Z,92.20
2018-11-25T23:57:46.567Z,92.30
